sensor_id;sensor_type;location;lat;lon;timestamp;temperature;humidity
2997;DHT22;1508;48.744;9.110;2022-07-15T00:02:20;18.60;95.00
2997;DHT22;1508;48.744;9.110;2022-07-15T00:05:07;18.60;95.20
2997;DHT22;1508;48.744;9.110;2022-07-15T00:07:53;18.60;95.20
2997;DHT22;1508;48.744;9.110;2022-07-15T00:10:39;18.50;95.40
2997;DHT22;1508;48.744;9.110;2022-07-15T00:13:25;18.50;96.00
2997;DHT22;1508;48.744;9.110;2022-07-15T00:16:11;18.50;95.90
2997;DHT22;1508;48.744;9.110;2022-07-15T00:18:57;18.50;96.10
2997;DHT22;1508;48.744;9.110;2022-07-15T00:21:42;18.40;96.20
2997;DHT22;1508;48.744;9.110;2022-07-15T00:24:29;18.40;96.50
2997;DHT22;1508;48.744;9.110;2022-07-15T00:27:15;18.30;96.70
2997;DHT22;1508;48.744;9.110;2022-07-15T00:30:00;18.20;97.00
2997;DHT22;1508;48.744;9.110;2022-07-15T00:32:46;18.20;97.40
2997;DHT22;1508;48.744;9.110;2022-07-15T00:35:34;18.10;98.00
2997;DHT22;1508;48.744;9.110;2022-07-15T00:38:20;18.00;98.30
2997;DHT22;1508;48.744;9.110;2022-07-15T00:41:06;18.00;98.50
2997;DHT22;1508;48.744;9.110;2022-07-15T00:43:52;17.80;97.50
2997;DHT22;1508;48.744;9.110;2022-07-15T00:46:38;17.70;98.00
2997;DHT22;1508;48.744;9.110;2022-07-15T00:49:24;17.70;97.80
2997;DHT22;1508;48.744;9.110;2022-07-15T00:52:10;17.70;97.70
2997;DHT22;1508;48.744;9.110;2022-07-15T00:54:58;17.60;97.60
2997;DHT22;1508;48.744;9.110;2022-07-15T00:57:45;17.60;97.60
2997;DHT22;1508;48.744;9.110;2022-07-15T01:00:32;17.50;97.50
2997;DHT22;1508;48.744;9.110;2022-07-15T01:03:18;17.50;97.60
2997;DHT22;1508;48.744;9.110;2022-07-15T01:06:04;17.40;97.40
2997;DHT22;1508;48.744;9.110;2022-07-15T01:08:50;17.40;97.50
2997;DHT22;1508;48.744;9.110;2022-07-15T01:11:36;17.40;97.20
2997;DHT22;1508;48.744;9.110;2022-07-15T01:14:22;17.30;97.40
2997;DHT22;1508;48.744;9.110;2022-07-15T01:17:10;17.30;97.30
2997;DHT22;1508;48.744;9.110;2022-07-15T01:19:56;17.20;97.50
2997;DHT22;1508;48.744;9.110;2022-07-15T01:22:42;17.20;97.50
2997;DHT22;1508;48.744;9.110;2022-07-15T01:25:28;17.20;97.50
2997;DHT22;1508;48.744;9.110;2022-07-15T01:28:13;17.20;97.60
2997;DHT22;1508;48.744;9.110;2022-07-15T01:30:59;17.20;97.60
2997;DHT22;1508;48.744;9.110;2022-07-15T01:33:45;17.20;97.70
2997;DHT22;1508;48.744;9.110;2022-07-15T01:36:31;17.10;97.90
2997;DHT22;1508;48.744;9.110;2022-07-15T01:39:17;17.00;97.90
2997;DHT22;1508;48.744;9.110;2022-07-15T01:42:03;17.00;97.90
2997;DHT22;1508;48.744;9.110;2022-07-15T01:44:49;17.00;98.00
2997;DHT22;1508;48.744;9.110;2022-07-15T01:47:45;16.90;97.90
2997;DHT22;1508;48.744;9.110;2022-07-15T01:50:31;16.90;98.00
2997;DHT22;1508;48.744;9.110;2022-07-15T01:53:17;16.90;98.10
2997;DHT22;1508;48.744;9.110;2022-07-15T01:56:03;16.90;98.10
2997;DHT22;1508;48.744;9.110;2022-07-15T01:58:49;16.90;98.30
2997;DHT22;1508;48.744;9.110;2022-07-15T02:01:35;16.80;98.60
2997;DHT22;1508;48.744;9.110;2022-07-15T02:04:21;16.80;99.20
2997;DHT22;1508;48.744;9.110;2022-07-15T02:07:06;16.80;99.90
2997;DHT22;1508;48.744;9.110;2022-07-15T02:09:52;16.70;99.90
2997;DHT22;1508;48.744;9.110;2022-07-15T02:12:38;16.70;99.90
2997;DHT22;1508;48.744;9.110;2022-07-15T02:15:24;16.60;99.90
2997;DHT22;1508;48.744;9.110;2022-07-15T02:18:10;16.50;99.90
2997;DHT22;1508;48.744;9.110;2022-07-15T02:20:56;16.40;99.90
2997;DHT22;1508;48.744;9.110;2022-07-15T02:23:42;16.30;99.90
2997;DHT22;1508;48.744;9.110;2022-07-15T02:26:28;16.30;99.90
2997;DHT22;1508;48.744;9.110;2022-07-15T02:29:15;16.20;99.90
2997;DHT22;1508;48.744;9.110;2022-07-15T02:32:01;16.10;99.90
2997;DHT22;1508;48.744;9.110;2022-07-15T02:34:47;16.00;99.90
2997;DHT22;1508;48.744;9.110;2022-07-15T02:37:32;16.00;99.90
2997;DHT22;1508;48.744;9.110;2022-07-15T02:40:18;15.80;99.90
2997;DHT22;1508;48.744;9.110;2022-07-15T02:43:04;15.80;99.90
2997;DHT22;1508;48.744;9.110;2022-07-15T02:45:50;15.80;99.90
2997;DHT22;1508;48.744;9.110;2022-07-15T02:48:37;15.70;99.90
2997;DHT22;1508;48.744;9.110;2022-07-15T02:51:23;15.70;99.90
2997;DHT22;1508;48.744;9.110;2022-07-15T02:54:09;15.70;99.90
2997;DHT22;1508;48.744;9.110;2022-07-15T02:56:55;15.60;99.90
2997;DHT22;1508;48.744;9.110;2022-07-15T02:59:41;15.70;99.90
2997;DHT22;1508;48.744;9.110;2022-07-15T03:02:27;15.60;99.90
2997;DHT22;1508;48.744;9.110;2022-07-15T03:05:13;15.60;99.90
2997;DHT22;1508;48.744;9.110;2022-07-15T03:07:59;15.60;99.90
2997;DHT22;1508;48.744;9.110;2022-07-15T03:10:44;15.60;99.90
2997;DHT22;1508;48.744;9.110;2022-07-15T03:13:30;15.50;99.90
2997;DHT22;1508;48.744;9.110;2022-07-15T03:16:16;15.50;99.90
2997;DHT22;1508;48.744;9.110;2022-07-15T03:19:02;15.40;99.90
2997;DHT22;1508;48.744;9.110;2022-07-15T03:21:48;15.40;99.90
2997;DHT22;1508;48.744;9.110;2022-07-15T03:24:34;15.30;99.90
2997;DHT22;1508;48.744;9.110;2022-07-15T03:27:20;15.30;99.90
2997;DHT22;1508;48.744;9.110;2022-07-15T03:30:07;15.30;99.90
2997;DHT22;1508;48.744;9.110;2022-07-15T03:32:53;15.30;99.90
2997;DHT22;1508;48.744;9.110;2022-07-15T03:35:39;15.20;99.90
2997;DHT22;1508;48.744;9.110;2022-07-15T03:38:24;15.10;99.90
2997;DHT22;1508;48.744;9.110;2022-07-15T03:41:10;15.10;99.90
2997;DHT22;1508;48.744;9.110;2022-07-15T03:43:56;15.00;99.90
2997;DHT22;1508;48.744;9.110;2022-07-15T03:46:42;15.00;99.90
2997;DHT22;1508;48.744;9.110;2022-07-15T03:49:28;14.90;99.90
2997;DHT22;1508;48.744;9.110;2022-07-15T03:52:13;14.90;99.90
2997;DHT22;1508;48.744;9.110;2022-07-15T03:54:59;14.90;99.90
2997;DHT22;1508;48.744;9.110;2022-07-15T03:57:45;14.90;99.90
2997;DHT22;1508;48.744;9.110;2022-07-15T04:00:31;14.90;99.90
2997;DHT22;1508;48.744;9.110;2022-07-15T04:03:17;15.00;99.90
2997;DHT22;1508;48.744;9.110;2022-07-15T04:06:03;15.00;99.90
2997;DHT22;1508;48.744;9.110;2022-07-15T04:08:49;15.10;99.90
2997;DHT22;1508;48.744;9.110;2022-07-15T04:11:35;15.10;99.90
2997;DHT22;1508;48.744;9.110;2022-07-15T04:14:20;15.20;99.90
2997;DHT22;1508;48.744;9.110;2022-07-15T04:17:06;15.30;99.90
2997;DHT22;1508;48.744;9.110;2022-07-15T04:19:52;15.30;99.90
2997;DHT22;1508;48.744;9.110;2022-07-15T04:22:43;15.50;99.90
2997;DHT22;1508;48.744;9.110;2022-07-15T04:25:29;15.50;99.90
2997;DHT22;1508;48.744;9.110;2022-07-15T04:28:15;15.60;99.90
2997;DHT22;1508;48.744;9.110;2022-07-15T04:31:01;15.70;99.90
2997;DHT22;1508;48.744;9.110;2022-07-15T04:33:47;15.80;99.90
2997;DHT22;1508;48.744;9.110;2022-07-15T04:36:33;15.80;99.90
2997;DHT22;1508;48.744;9.110;2022-07-15T04:39:18;16.00;99.90
2997;DHT22;1508;48.744;9.110;2022-07-15T04:42:04;16.10;99.90
2997;DHT22;1508;48.744;9.110;2022-07-15T04:44:50;16.20;99.90
2997;DHT22;1508;48.744;9.110;2022-07-15T04:47:36;16.30;99.90
2997;DHT22;1508;48.744;9.110;2022-07-15T04:50:22;16.30;99.90
2997;DHT22;1508;48.744;9.110;2022-07-15T04:53:08;16.90;99.90
2997;DHT22;1508;48.744;9.110;2022-07-15T04:55:54;17.30;99.90
2997;DHT22;1508;48.744;9.110;2022-07-15T04:58:40;17.70;99.90
2997;DHT22;1508;48.744;9.110;2022-07-15T05:01:26;17.90;99.90
2997;DHT22;1508;48.744;9.110;2022-07-15T05:04:11;18.20;99.90
2997;DHT22;1508;48.744;9.110;2022-07-15T05:06:57;18.20;99.90
2997;DHT22;1508;48.744;9.110;2022-07-15T05:09:43;18.20;99.90
2997;DHT22;1508;48.744;9.110;2022-07-15T05:12:29;18.20;99.90
2997;DHT22;1508;48.744;9.110;2022-07-15T05:15:15;18.20;99.90
2997;DHT22;1508;48.744;9.110;2022-07-15T05:18:01;18.30;99.90
2997;DHT22;1508;48.744;9.110;2022-07-15T05:20:47;18.30;99.90
2997;DHT22;1508;48.744;9.110;2022-07-15T05:23:32;18.40;99.90
2997;DHT22;1508;48.744;9.110;2022-07-15T05:26:18;18.40;99.90
2997;DHT22;1508;48.744;9.110;2022-07-15T05:29:04;18.50;99.90
2997;DHT22;1508;48.744;9.110;2022-07-15T05:31:50;18.70;99.90
2997;DHT22;1508;48.744;9.110;2022-07-15T05:34:36;18.80;99.90
2997;DHT22;1508;48.744;9.110;2022-07-15T05:37:22;19.00;99.90
2997;DHT22;1508;48.744;9.110;2022-07-15T05:40:08;19.10;99.90
2997;DHT22;1508;48.744;9.110;2022-07-15T05:42:55;19.40;99.90
2997;DHT22;1508;48.744;9.110;2022-07-15T05:45:41;19.90;99.90
2997;DHT22;1508;48.744;9.110;2022-07-15T05:48:27;20.20;99.90
2997;DHT22;1508;48.744;9.110;2022-07-15T05:51:13;20.60;99.90
2997;DHT22;1508;48.744;9.110;2022-07-15T05:53:59;21.00;99.90
2997;DHT22;1508;48.744;9.110;2022-07-15T05:56:45;21.30;99.90
2997;DHT22;1508;48.744;9.110;2022-07-15T05:59:30;21.70;99.90
2997;DHT22;1508;48.744;9.110;2022-07-15T06:02:16;21.90;99.90
2997;DHT22;1508;48.744;9.110;2022-07-15T06:05:02;22.10;99.90
2997;DHT22;1508;48.744;9.110;2022-07-15T06:07:48;22.40;99.90
2997;DHT22;1508;48.744;9.110;2022-07-15T06:10:34;22.60;99.90
2997;DHT22;1508;48.744;9.110;2022-07-15T06:13:20;22.50;99.90
2997;DHT22;1508;48.744;9.110;2022-07-15T06:16:07;22.70;99.90
2997;DHT22;1508;48.744;9.110;2022-07-15T06:18:53;23.00;99.10
2997;DHT22;1508;48.744;9.110;2022-07-15T06:21:39;23.20;97.80
2997;DHT22;1508;48.744;9.110;2022-07-15T06:24:25;23.50;97.30
2997;DHT22;1508;48.744;9.110;2022-07-15T06:27:11;23.50;95.70
2997;DHT22;1508;48.744;9.110;2022-07-15T06:29:58;23.40;95.00
2997;DHT22;1508;48.744;9.110;2022-07-15T06:32:43;23.20;94.10
2997;DHT22;1508;48.744;9.110;2022-07-15T06:35:29;23.20;94.40
2997;DHT22;1508;48.744;9.110;2022-07-15T06:38:15;23.20;94.70
2997;DHT22;1508;48.744;9.110;2022-07-15T06:41:01;23.20;92.20
2997;DHT22;1508;48.744;9.110;2022-07-15T06:43:47;23.20;92.40
2997;DHT22;1508;48.744;9.110;2022-07-15T06:46:33;23.00;92.80
2997;DHT22;1508;48.744;9.110;2022-07-15T06:49:19;23.20;92.80
2997;DHT22;1508;48.744;9.110;2022-07-15T06:52:05;23.20;92.20
2997;DHT22;1508;48.744;9.110;2022-07-15T06:54:51;23.00;91.80
2997;DHT22;1508;48.744;9.110;2022-07-15T06:57:39;23.20;92.20
2997;DHT22;1508;48.744;9.110;2022-07-15T07:00:25;23.20;92.40
2997;DHT22;1508;48.744;9.110;2022-07-15T07:03:11;23.20;91.40
2997;DHT22;1508;48.744;9.110;2022-07-15T07:05:57;23.00;90.50
2997;DHT22;1508;48.744;9.110;2022-07-15T07:08:43;22.80;90.90
2997;DHT22;1508;48.744;9.110;2022-07-15T07:11:29;22.80;91.10
2997;DHT22;1508;48.744;9.110;2022-07-15T07:14:15;22.70;90.70
2997;DHT22;1508;48.744;9.110;2022-07-15T07:17:00;22.10;91.10
2997;DHT22;1508;48.744;9.110;2022-07-15T07:19:46;22.00;91.40
2997;DHT22;1508;48.744;9.110;2022-07-15T07:22:32;22.10;91.50
2997;DHT22;1508;48.744;9.110;2022-07-15T07:25:18;22.40;91.50
2997;DHT22;1508;48.744;9.110;2022-07-15T07:28:04;22.40;91.20
2997;DHT22;1508;48.744;9.110;2022-07-15T07:30:50;22.20;91.00
2997;DHT22;1508;48.744;9.110;2022-07-15T07:33:36;22.30;90.90
2997;DHT22;1508;48.744;9.110;2022-07-15T07:36:24;22.40;90.90
2997;DHT22;1508;48.744;9.110;2022-07-15T07:39:10;22.60;91.00
2997;DHT22;1508;48.744;9.110;2022-07-15T07:41:56;22.10;90.60
2997;DHT22;1508;48.744;9.110;2022-07-15T07:44:42;21.80;90.70
2997;DHT22;1508;48.744;9.110;2022-07-15T07:47:28;21.80;91.10
2997;DHT22;1508;48.744;9.110;2022-07-15T07:50:14;22.00;90.40
2997;DHT22;1508;48.744;9.110;2022-07-15T07:53:00;22.20;89.70
2997;DHT22;1508;48.744;9.110;2022-07-15T07:55:46;22.30;90.20
2997;DHT22;1508;48.744;9.110;2022-07-15T07:58:32;22.30;89.80
2997;DHT22;1508;48.744;9.110;2022-07-15T08:01:18;22.30;90.90
2997;DHT22;1508;48.744;9.110;2022-07-15T08:04:04;22.50;90.80
2997;DHT22;1508;48.744;9.110;2022-07-15T08:06:50;22.40;88.30
2997;DHT22;1508;48.744;9.110;2022-07-15T08:09:36;22.40;90.50
2997;DHT22;1508;48.744;9.110;2022-07-15T08:12:22;22.40;89.20
2997;DHT22;1508;48.744;9.110;2022-07-15T08:15:10;22.20;88.80
2997;DHT22;1508;48.744;9.110;2022-07-15T08:17:56;22.20;90.10
2997;DHT22;1508;48.744;9.110;2022-07-15T08:20:42;22.30;90.60
2997;DHT22;1508;48.744;9.110;2022-07-15T08:23:28;22.50;88.80
2997;DHT22;1508;48.744;9.110;2022-07-15T08:26:14;22.60;89.00
2997;DHT22;1508;48.744;9.110;2022-07-15T08:28:59;22.70;88.10
2997;DHT22;1508;48.744;9.110;2022-07-15T08:31:45;22.90;89.50
2997;DHT22;1508;48.744;9.110;2022-07-15T08:34:31;23.10;89.60
2997;DHT22;1508;48.744;9.110;2022-07-15T08:37:17;23.10;88.20
2997;DHT22;1508;48.744;9.110;2022-07-15T08:40:04;23.30;87.60
2997;DHT22;1508;48.744;9.110;2022-07-15T08:42:51;23.30;87.20
2997;DHT22;1508;48.744;9.110;2022-07-15T08:45:39;23.20;87.20
2997;DHT22;1508;48.744;9.110;2022-07-15T08:48:28;23.30;87.80
2997;DHT22;1508;48.744;9.110;2022-07-15T08:51:14;23.30;85.20
2997;DHT22;1508;48.744;9.110;2022-07-15T08:54:00;23.30;85.80
2997;DHT22;1508;48.744;9.110;2022-07-15T08:56:46;23.20;86.20
2997;DHT22;1508;48.744;9.110;2022-07-15T08:59:32;23.10;85.70
2997;DHT22;1508;48.744;9.110;2022-07-15T09:02:21;23.10;87.00
2997;DHT22;1508;48.744;9.110;2022-07-15T09:05:30;23.30;85.50
2997;DHT22;1508;48.744;9.110;2022-07-15T09:08:16;23.50;85.70
2997;DHT22;1508;48.744;9.110;2022-07-15T09:11:02;23.80;85.50
2997;DHT22;1508;48.744;9.110;2022-07-15T09:13:48;23.90;84.70
2997;DHT22;1508;48.744;9.110;2022-07-15T09:16:34;23.80;85.10
2997;DHT22;1508;48.744;9.110;2022-07-15T09:19:20;24.00;85.60
2997;DHT22;1508;48.744;9.110;2022-07-15T09:22:06;24.20;85.70
2997;DHT22;1508;48.744;9.110;2022-07-15T09:27:47;24.10;84.00
2997;DHT22;1508;48.744;9.110;2022-07-15T09:30:41;24.00;85.00
2997;DHT22;1508;48.744;9.110;2022-07-15T09:33:32;24.20;84.90
2997;DHT22;1508;48.744;9.110;2022-07-15T09:36:21;24.30;84.30
2997;DHT22;1508;48.744;9.110;2022-07-15T09:39:07;24.60;83.00
2997;DHT22;1508;48.744;9.110;2022-07-15T09:41:53;24.50;81.60
2997;DHT22;1508;48.744;9.110;2022-07-15T09:44:39;24.00;82.40
2997;DHT22;1508;48.744;9.110;2022-07-15T09:47:24;24.00;84.20
2997;DHT22;1508;48.744;9.110;2022-07-15T09:50:11;23.90;83.40
2997;DHT22;1508;48.744;9.110;2022-07-15T09:52:57;24.10;84.60
2997;DHT22;1508;48.744;9.110;2022-07-15T09:55:43;24.20;83.30
2997;DHT22;1508;48.744;9.110;2022-07-15T09:58:29;24.30;82.30
2997;DHT22;1508;48.744;9.110;2022-07-15T10:01:15;24.40;83.10
2997;DHT22;1508;48.744;9.110;2022-07-15T10:04:01;24.80;83.70
2997;DHT22;1508;48.744;9.110;2022-07-15T10:06:49;24.90;81.80
2997;DHT22;1508;48.744;9.110;2022-07-15T10:09:36;25.00;80.40
2997;DHT22;1508;48.744;9.110;2022-07-15T10:12:24;24.90;81.00
2997;DHT22;1508;48.744;9.110;2022-07-15T10:15:33;24.60;80.10
2997;DHT22;1508;48.744;9.110;2022-07-15T10:18:43;24.50;80.00
2997;DHT22;1508;48.744;9.110;2022-07-15T10:21:44;24.80;82.00
2997;DHT22;1508;48.744;9.110;2022-07-15T10:24:45;25.10;82.20
2997;DHT22;1508;48.744;9.110;2022-07-15T10:28:12;25.20;80.30
2997;DHT22;1508;48.744;9.110;2022-07-15T10:31:22;25.10;80.40
2997;DHT22;1508;48.744;9.110;2022-07-15T10:36:59;24.40;81.30
2997;DHT22;1508;48.744;9.110;2022-07-15T10:39:56;24.60;80.50
2997;DHT22;1508;48.744;9.110;2022-07-15T10:43:00;24.80;79.10
2997;DHT22;1508;48.744;9.110;2022-07-15T10:51:47;24.00;81.30
2997;DHT22;1508;48.744;9.110;2022-07-15T10:57:19;24.60;80.40
2997;DHT22;1508;48.744;9.110;2022-07-15T11:00:26;24.80;82.10
2997;DHT22;1508;48.744;9.110;2022-07-15T11:06:03;25.50;78.70
2997;DHT22;1508;48.744;9.110;2022-07-15T11:08:49;25.60;81.00
2997;DHT22;1508;48.744;9.110;2022-07-15T11:11:45;25.40;79.40
2997;DHT22;1508;48.744;9.110;2022-07-15T11:14:56;25.60;78.90
2997;DHT22;1508;48.744;9.110;2022-07-15T11:17:44;25.60;78.00
2997;DHT22;1508;48.744;9.110;2022-07-15T11:20:35;25.40;78.10
2997;DHT22;1508;48.744;9.110;2022-07-15T11:23:30;25.30;77.60
2997;DHT22;1508;48.744;9.110;2022-07-15T11:26:16;25.60;77.70
2997;DHT22;1508;48.744;9.110;2022-07-15T11:29:02;25.90;79.10
2997;DHT22;1508;48.744;9.110;2022-07-15T11:31:48;26.10;77.70
2997;DHT22;1508;48.744;9.110;2022-07-15T11:34:43;26.20;76.70
2997;DHT22;1508;48.744;9.110;2022-07-15T11:37:34;26.50;76.40
2997;DHT22;1508;48.744;9.110;2022-07-15T11:40:20;26.70;75.50
2997;DHT22;1508;48.744;9.110;2022-07-15T11:43:12;26.40;75.80
2997;DHT22;1508;48.744;9.110;2022-07-15T11:45:59;26.20;75.90
2997;DHT22;1508;48.744;9.110;2022-07-15T11:48:45;26.20;76.80
2997;DHT22;1508;48.744;9.110;2022-07-15T11:51:31;26.10;76.00
2997;DHT22;1508;48.744;9.110;2022-07-15T11:54:18;25.80;76.10
2997;DHT22;1508;48.744;9.110;2022-07-15T11:57:06;25.60;75.30
2997;DHT22;1508;48.744;9.110;2022-07-15T11:59:54;25.60;78.00
2997;DHT22;1508;48.744;9.110;2022-07-15T12:02:40;25.20;77.20
2997;DHT22;1508;48.744;9.110;2022-07-15T12:05:26;25.20;78.30
2997;DHT22;1508;48.744;9.110;2022-07-15T12:08:12;25.40;78.30
2997;DHT22;1508;48.744;9.110;2022-07-15T12:10:58;25.50;77.80
2997;DHT22;1508;48.744;9.110;2022-07-15T12:16:47;25.40;77.20
2997;DHT22;1508;48.744;9.110;2022-07-15T12:19:33;25.00;78.10
2997;DHT22;1508;48.744;9.110;2022-07-15T12:22:19;25.00;77.40
2997;DHT22;1508;48.744;9.110;2022-07-15T12:25:06;25.30;78.50
2997;DHT22;1508;48.744;9.110;2022-07-15T12:27:52;25.20;78.40
2997;DHT22;1508;48.744;9.110;2022-07-15T12:30:38;25.40;77.60
2997;DHT22;1508;48.744;9.110;2022-07-15T12:33:25;25.70;78.30
2997;DHT22;1508;48.744;9.110;2022-07-15T12:36:17;26.00;77.50
2997;DHT22;1508;48.744;9.110;2022-07-15T12:39:08;25.40;76.90
2997;DHT22;1508;48.744;9.110;2022-07-15T12:42:02;25.50;79.20
2997;DHT22;1508;48.744;9.110;2022-07-15T12:45:12;25.50;77.50
2997;DHT22;1508;48.744;9.110;2022-07-15T12:50:56;25.40;77.90
2997;DHT22;1508;48.744;9.110;2022-07-15T12:53:43;25.40;77.50
2997;DHT22;1508;48.744;9.110;2022-07-15T12:56:29;25.30;78.60
2997;DHT22;1508;48.744;9.110;2022-07-15T12:59:15;25.10;78.90
2997;DHT22;1508;48.744;9.110;2022-07-15T13:02:04;24.80;80.50
2997;DHT22;1508;48.744;9.110;2022-07-15T13:04:50;24.70;80.40
2997;DHT22;1508;48.744;9.110;2022-07-15T13:07:36;24.40;80.70
2997;DHT22;1508;48.744;9.110;2022-07-15T13:10:22;24.20;81.60
2997;DHT22;1508;48.744;9.110;2022-07-15T13:13:09;24.20;82.20
2997;DHT22;1508;48.744;9.110;2022-07-15T13:15:56;24.50;82.50
2997;DHT22;1508;48.744;9.110;2022-07-15T13:18:42;25.00;81.90
2997;DHT22;1508;48.744;9.110;2022-07-15T13:21:28;25.40;81.40
2997;DHT22;1508;48.744;9.110;2022-07-15T13:24:13;25.60;81.70
2997;DHT22;1508;48.744;9.110;2022-07-15T13:26:59;25.80;78.10
2997;DHT22;1508;48.744;9.110;2022-07-15T13:29:45;25.90;79.10
2997;DHT22;1508;48.744;9.110;2022-07-15T13:32:31;25.70;79.00
2997;DHT22;1508;48.744;9.110;2022-07-15T13:35:17;25.90;77.60
2997;DHT22;1508;48.744;9.110;2022-07-15T13:38:03;25.60;78.20
2997;DHT22;1508;48.744;9.110;2022-07-15T13:40:49;25.70;78.80
2997;DHT22;1508;48.744;9.110;2022-07-15T13:43:35;25.50;78.30
2997;DHT22;1508;48.744;9.110;2022-07-15T13:46:20;25.70;79.30
2997;DHT22;1508;48.744;9.110;2022-07-15T13:49:06;26.00;79.00
2997;DHT22;1508;48.744;9.110;2022-07-15T13:51:52;26.00;77.80
2997;DHT22;1508;48.744;9.110;2022-07-15T13:54:38;25.80;77.20
2997;DHT22;1508;48.744;9.110;2022-07-15T13:57:24;25.70;78.20
2997;DHT22;1508;48.744;9.110;2022-07-15T14:00:12;25.70;78.30
2997;DHT22;1508;48.744;9.110;2022-07-15T14:02:58;25.60;78.90
2997;DHT22;1508;48.744;9.110;2022-07-15T14:05:44;25.50;78.40
2997;DHT22;1508;48.744;9.110;2022-07-15T14:08:30;25.10;79.00
2997;DHT22;1508;48.744;9.110;2022-07-15T14:11:16;24.60;79.50
2997;DHT22;1508;48.744;9.110;2022-07-15T14:14:02;24.50;80.90
2997;DHT22;1508;48.744;9.110;2022-07-15T14:16:48;24.60;80.80
2997;DHT22;1508;48.744;9.110;2022-07-15T14:19:34;24.50;80.70
2997;DHT22;1508;48.744;9.110;2022-07-15T14:22:21;24.40;80.80
2997;DHT22;1508;48.744;9.110;2022-07-15T14:25:07;24.50;80.30
2997;DHT22;1508;48.744;9.110;2022-07-15T14:27:53;24.50;80.70
2997;DHT22;1508;48.744;9.110;2022-07-15T14:30:39;24.70;79.90
2997;DHT22;1508;48.744;9.110;2022-07-15T14:33:25;24.90;81.00
2997;DHT22;1508;48.744;9.110;2022-07-15T14:36:11;25.30;80.70
2997;DHT22;1508;48.744;9.110;2022-07-15T14:38:57;25.40;79.50
2997;DHT22;1508;48.744;9.110;2022-07-15T14:41:43;25.10;79.00
2997;DHT22;1508;48.744;9.110;2022-07-15T14:44:28;25.10;79.30
2997;DHT22;1508;48.744;9.110;2022-07-15T14:47:14;25.10;79.20
2997;DHT22;1508;48.744;9.110;2022-07-15T14:50:00;25.10;78.20
2997;DHT22;1508;48.744;9.110;2022-07-15T14:52:47;24.80;79.40
2997;DHT22;1508;48.744;9.110;2022-07-15T14:55:32;24.90;79.60
2997;DHT22;1508;48.744;9.110;2022-07-15T14:58:18;24.90;80.20
2997;DHT22;1508;48.744;9.110;2022-07-15T15:01:04;24.90;79.60
2997;DHT22;1508;48.744;9.110;2022-07-15T15:03:50;24.90;79.90
2997;DHT22;1508;48.744;9.110;2022-07-15T15:06:36;24.90;79.70
2997;DHT22;1508;48.744;9.110;2022-07-15T15:09:22;25.10;79.10
2997;DHT22;1508;48.744;9.110;2022-07-15T15:12:08;25.20;79.10
2997;DHT22;1508;48.744;9.110;2022-07-15T15:14:54;25.10;78.50
2997;DHT22;1508;48.744;9.110;2022-07-15T15:17:40;25.20;78.50
2997;DHT22;1508;48.744;9.110;2022-07-15T15:20:25;25.20;78.80
2997;DHT22;1508;48.744;9.110;2022-07-15T15:23:11;25.10;78.40
2997;DHT22;1508;48.744;9.110;2022-07-15T15:25:57;25.00;78.20
2997;DHT22;1508;48.744;9.110;2022-07-15T15:28:43;25.00;77.70
2997;DHT22;1508;48.744;9.110;2022-07-15T15:31:29;24.80;77.70
2997;DHT22;1508;48.744;9.110;2022-07-15T15:34:15;24.60;78.10
2997;DHT22;1508;48.744;9.110;2022-07-15T15:37:01;24.60;78.30
2997;DHT22;1508;48.744;9.110;2022-07-15T15:39:46;24.60;79.10
2997;DHT22;1508;48.744;9.110;2022-07-15T15:42:32;24.60;77.60
2997;DHT22;1508;48.744;9.110;2022-07-15T15:45:18;24.40;77.40
2997;DHT22;1508;48.744;9.110;2022-07-15T15:48:04;24.30;77.90
2997;DHT22;1508;48.744;9.110;2022-07-15T15:50:50;24.40;78.00
2997;DHT22;1508;48.744;9.110;2022-07-15T15:53:36;24.30;78.00
2997;DHT22;1508;48.744;9.110;2022-07-15T15:56:22;24.20;77.50
2997;DHT22;1508;48.744;9.110;2022-07-15T15:59:08;24.30;78.20
2997;DHT22;1508;48.744;9.110;2022-07-15T16:01:54;24.20;76.60
2997;DHT22;1508;48.744;9.110;2022-07-15T16:04:40;24.10;77.00
2997;DHT22;1508;48.744;9.110;2022-07-15T16:07:26;24.00;76.40
2997;DHT22;1508;48.744;9.110;2022-07-15T16:10:11;23.90;76.70
2997;DHT22;1508;48.744;9.110;2022-07-15T16:12:57;24.00;77.60
2997;DHT22;1508;48.744;9.110;2022-07-15T16:15:43;24.10;77.00
2997;DHT22;1508;48.744;9.110;2022-07-15T16:18:29;24.20;77.50
2997;DHT22;1508;48.744;9.110;2022-07-15T16:21:15;24.20;77.10
2997;DHT22;1508;48.744;9.110;2022-07-15T16:24:01;24.10;76.60
2997;DHT22;1508;48.744;9.110;2022-07-15T16:26:47;23.90;76.70
2997;DHT22;1508;48.744;9.110;2022-07-15T16:29:33;23.80;77.40
2997;DHT22;1508;48.744;9.110;2022-07-15T16:32:19;23.80;77.20
2997;DHT22;1508;48.744;9.110;2022-07-15T16:35:05;23.80;77.50
2997;DHT22;1508;48.744;9.110;2022-07-15T16:37:53;23.80;77.60
2997;DHT22;1508;48.744;9.110;2022-07-15T16:40:39;23.80;77.20
2997;DHT22;1508;48.744;9.110;2022-07-15T16:43:25;23.90;77.70
2997;DHT22;1508;48.744;9.110;2022-07-15T16:46:11;23.90;77.20
2997;DHT22;1508;48.744;9.110;2022-07-15T16:48:57;23.80;77.30
2997;DHT22;1508;48.744;9.110;2022-07-15T16:51:43;23.60;78.00
2997;DHT22;1508;48.744;9.110;2022-07-15T16:54:29;23.60;78.10
2997;DHT22;1508;48.744;9.110;2022-07-15T16:57:14;23.40;78.30
2997;DHT22;1508;48.744;9.110;2022-07-15T17:00:01;23.40;78.40
2997;DHT22;1508;48.744;9.110;2022-07-15T17:02:49;23.40;78.80
2997;DHT22;1508;48.744;9.110;2022-07-15T17:05:35;23.40;79.30
2997;DHT22;1508;48.744;9.110;2022-07-15T17:08:20;23.30;79.00
2997;DHT22;1508;48.744;9.110;2022-07-15T17:11:06;23.30;79.90
2997;DHT22;1508;48.744;9.110;2022-07-15T17:13:52;23.20;79.50
2997;DHT22;1508;48.744;9.110;2022-07-15T17:16:38;23.20;80.00
2997;DHT22;1508;48.744;9.110;2022-07-15T17:19:25;23.10;79.20
2997;DHT22;1508;48.744;9.110;2022-07-15T17:22:11;23.10;79.80
2997;DHT22;1508;48.744;9.110;2022-07-15T17:24:57;23.00;80.00
2997;DHT22;1508;48.744;9.110;2022-07-15T17:27:42;23.10;79.40
2997;DHT22;1508;48.744;9.110;2022-07-15T17:30:28;23.10;80.10
2997;DHT22;1508;48.744;9.110;2022-07-15T17:33:14;23.10;80.20
2997;DHT22;1508;48.744;9.110;2022-07-15T17:36:00;22.90;80.30
2997;DHT22;1508;48.744;9.110;2022-07-15T17:38:46;22.80;80.50
2997;DHT22;1508;48.744;9.110;2022-07-15T17:41:32;22.70;80.60
2997;DHT22;1508;48.744;9.110;2022-07-15T17:44:18;22.80;81.20
2997;DHT22;1508;48.744;9.110;2022-07-15T17:47:04;22.80;81.20
2997;DHT22;1508;48.744;9.110;2022-07-15T17:49:50;22.70;81.60
2997;DHT22;1508;48.744;9.110;2022-07-15T17:52:36;22.60;81.50
2997;DHT22;1508;48.744;9.110;2022-07-15T17:55:22;22.60;81.50
2997;DHT22;1508;48.744;9.110;2022-07-15T17:58:08;22.60;81.30
2997;DHT22;1508;48.744;9.110;2022-07-15T18:00:54;22.60;81.80
2997;DHT22;1508;48.744;9.110;2022-07-15T18:03:40;22.80;81.90
2997;DHT22;1508;48.744;9.110;2022-07-15T18:06:26;22.70;81.60
2997;DHT22;1508;48.744;9.110;2022-07-15T18:09:11;22.70;82.00
2997;DHT22;1508;48.744;9.110;2022-07-15T18:11:57;22.70;85.30
2997;DHT22;1508;48.744;9.110;2022-07-15T18:14:43;22.90;83.40
2997;DHT22;1508;48.744;9.110;2022-07-15T18:17:29;23.00;83.00
2997;DHT22;1508;48.744;9.110;2022-07-15T18:20:15;22.90;80.90
2997;DHT22;1508;48.744;9.110;2022-07-15T18:23:01;22.80;81.20
2997;DHT22;1508;48.744;9.110;2022-07-15T18:25:47;22.80;81.50
2997;DHT22;1508;48.744;9.110;2022-07-15T18:28:33;22.50;81.60
2997;DHT22;1508;48.744;9.110;2022-07-15T18:31:18;22.40;82.10
2997;DHT22;1508;48.744;9.110;2022-07-15T18:34:05;22.30;82.90